Time;durP1;ratioP1;P1;durP2;ratioP2;P2;SDS_P1;SDS_P2;PMS_P1;PMS_P2;Temp;Humidity;BMP_temperature;BMP_pressure;BME280_temperature;BME280_humidity;BME280_pressure;Samples;Min_cycle;Max_cycle;Signal;HPM_P1;HPM_P2
2024/01/08 00:01:30;;;;;;;1.00;1.00;;;-1.20;1.00;;;;;;5056563;28;20788;-87
2024/01/08 00:03:55;;;;;;;0.90;0.90;;;-1.20;1.00;;;;;;5055234;28;20183;-87
2024/01/08 00:06:21;;;;;;;0.90;0.90;;;-1.20;1.00;;;;;;5055363;28;20715;-88
2024/01/08 00:08:46;;;;;;;1.10;1.10;;;-1.20;1.00;;;;;;5055451;28;20203;-87
2024/01/08 00:11:12;;;;;;;1.10;1.10;;;-1.20;1.00;;;;;;5054298;28;20199;-88
2024/01/08 00:13:38;;;;;;;1.00;1.00;;;-1.20;1.00;;;;;;5036902;28;20227;-87
2024/01/08 00:16:04;;;;;;;1.00;1.00;;;-1.30;1.00;;;;;;5055145;28;20234;-87
2024/01/08 00:18:30;;;;;;;0.90;0.90;;;-1.30;1.00;;;;;;5055317;28;20186;-87
2024/01/08 00:20:56;;;;;;;1.00;1.00;;;-1.30;1.00;;;;;;5055840;28;20194;-88
2024/01/08 00:23:23;;;;;;;1.00;1.00;;;-1.20;1.00;;;;;;5055662;28;20205;-87
2024/01/08 00:25:49;;;;;;;0.90;0.90;;;-1.20;1.00;;;;;;5055167;28;20182;-88
2024/01/08 00:28:14;;;;;;;0.90;0.90;;;-1.20;1.00;;;;;;5055487;28;20555;-89
2024/01/08 00:30:40;;;;;;;0.90;0.90;;;-1.10;1.00;;;;;;5055065;28;20270;-87
2024/01/08 00:33:05;;;;;;;0.93;0.93;;;-1.10;1.00;;;;;;5054979;28;20179;-87
2024/01/08 00:35:31;;;;;;;0.90;0.90;;;-1.00;1.00;;;;;;5054351;28;20186;-91
2024/01/08 00:37:57;;;;;;;0.90;0.90;;;-1.00;1.00;;;;;;5054758;28;20171;-87
2024/01/08 00:40:22;;;;;;;0.90;0.90;;;-1.10;99.90;;;;;;5055351;28;20175;-88
2024/01/08 00:42:48;;;;;;;1.00;1.00;;;-1.10;1.00;;;;;;5055429;28;20202;-88
2024/01/08 00:45:14;;;;;;;1.00;1.00;;;-1.10;1.00;;;;;;5054807;28;20262;-87
2024/01/08 00:47:41;;;;;;;0.90;0.90;;;-1.00;1.00;;;;;;5060721;28;20195;-89
2024/01/08 00:50:09;;;;;;;1.10;1.10;;;-1.00;1.00;;;;;;5072052;28;20299;-88
2024/01/08 00:52:36;;;;;;;0.90;0.90;;;-0.90;99.90;;;;;;5070693;28;20218;-90
2024/01/08 00:55:04;;;;;;;1.00;1.00;;;-0.90;1.00;;;;;;5071910;28;20175;-88
2024/01/08 00:57:31;;;;;;;1.00;1.00;;;-0.90;99.90;;;;;;5045346;28;20253;-88
2024/01/08 00:59:56;;;;;;;1.00;1.00;;;-0.80;99.90;;;;;;5055895;28;20175;-87
2024/01/08 01:02:22;;;;;;;0.90;0.90;;;-0.90;99.90;;;;;;5055905;28;20181;-88
2024/01/08 01:04:47;;;;;;;1.00;1.00;;;-0.90;99.90;;;;;;5054819;28;20202;-88
2024/01/08 01:07:13;;;;;;;1.10;1.10;;;-0.90;99.90;;;;;;5054498;28;20194;-88
2024/01/08 01:09:39;;;;;;;0.90;0.90;;;-0.90;99.90;;;;;;5055271;28;20199;-88
2024/01/08 01:12:04;;;;;;;0.97;0.97;;;-0.90;99.90;;;;;;5054918;28;20556;-88
2024/01/08 01:14:30;;;;;;;0.97;0.97;;;-1.00;99.90;;;;;;5054287;28;20179;-89
2024/01/08 01:16:56;;;;;;;1.00;1.00;;;-1.00;99.90;;;;;;5035925;28;20214;-88
2024/01/08 01:19:21;;;;;;;0.93;0.93;;;-0.90;99.90;;;;;;5053790;28;20648;-87
2024/01/08 01:21:47;;;;;;;1.00;1.00;;;-0.80;1.00;;;;;;5053807;28;20179;-88
2024/01/08 01:24:12;;;;;;;1.00;1.00;;;-0.80;99.90;;;;;;5053792;28;20730;-88
2024/01/08 01:26:38;;;;;;;1.00;1.00;;;-0.80;99.90;;;;;;5052857;28;20587;-88
2024/01/08 01:29:03;;;;;;;0.90;0.90;;;-0.80;99.90;;;;;;5035093;28;20202;-89
2024/01/08 01:31:31;;;;;;;1.00;1.00;;;-0.70;99.90;;;;;;5035806;28;20168;-87
2024/01/08 01:33:56;;;;;;;1.07;1.07;;;-0.80;99.90;;;;;;5054100;28;20578;-89
2024/01/08 01:36:22;;;;;;;1.00;1.00;;;-0.80;99.90;;;;;;5054845;28;20229;-88
2024/01/08 01:38:48;;;;;;;0.90;0.90;;;-0.90;99.90;;;;;;5065346;28;20187;-89
2024/01/08 01:41:13;;;;;;;0.90;0.90;;;-0.90;99.90;;;;;;5072513;28;20187;-87
2024/01/08 01:43:39;;;;;;;0.90;0.90;;;-0.80;99.90;;;;;;5054597;28;20213;-88
2024/01/08 01:46:16;;;;;;;0.90;0.90;;;-0.90;99.90;;;;;;5053103;28;20203;-88
2024/01/08 01:48:42;;;;;;;0.80;0.80;;;-0.90;99.90;;;;;;5053249;28;20246;-87
2024/01/08 01:51:08;;;;;;;1.00;1.00;;;-0.90;99.90;;;;;;5053091;28;20593;-88
2024/01/08 01:53:34;;;;;;;1.00;1.00;;;-0.90;99.90;;;;;;5053186;28;20190;-87
2024/01/08 01:56:00;;;;;;;1.00;1.00;;;-0.90;99.90;;;;;;5052553;28;20194;-88
2024/01/08 01:58:25;;;;;;;0.97;0.97;;;-0.80;99.90;;;;;;5052776;28;20261;-88
2024/01/08 02:00:52;;;;;;;0.90;0.90;;;-0.70;99.90;;;;;;5053122;28;20630;-89
2024/01/08 02:03:18;;;;;;;1.00;1.00;;;-0.70;99.90;;;;;;5035492;28;20174;-88
2024/01/08 02:05:43;;;;;;;0.93;0.93;;;-0.80;99.90;;;;;;5052463;28;20175;-89
2024/01/08 02:08:10;;;;;;;1.00;1.00;;;-0.80;99.90;;;;;;5053286;28;20178;-88
2024/01/08 02:10:40;;;;;;;1.00;1.00;;;-0.80;99.90;;;;;;5053361;28;20207;-88
2024/01/08 02:13:06;;;;;;;0.90;0.90;;;-0.90;99.90;;;;;;5053539;28;20175;-88
2024/01/08 02:15:31;;;;;;;1.03;1.03;;;-0.90;99.90;;;;;;5053024;28;20191;-88
2024/01/08 02:17:58;;;;;;;0.90;0.90;;;-0.90;99.90;;;;;;5053465;28;20574;-88
2024/01/08 02:20:24;;;;;;;0.97;0.97;;;-0.90;99.90;;;;;;5060154;28;20159;-87
2024/01/08 02:22:49;;;;;;;0.90;0.90;;;-1.00;99.90;;;;;;5076978;28;20180;-85
2024/01/08 02:25:15;;;;;;;1.03;1.03;;;-1.00;99.90;;;;;;5077298;28;20291;-88
2024/01/08 02:27:41;;;;;;;0.90;0.90;;;-1.00;99.90;;;;;;5075385;28;20187;-88
2024/01/08 02:30:06;;;;;;;1.00;1.00;;;-1.00;99.90;;;;;;5075072;28;20221;-87
2024/01/08 02:32:32;;;;;;;0.90;0.90;;;-1.00;99.90;;;;;;5074632;28;20175;-88
2024/01/08 02:34:58;;;;;;;0.90;0.90;;;-1.00;99.90;;;;;;5057888;28;20232;-89
2024/01/08 02:37:23;;;;;;;1.00;1.00;;;-1.00;99.90;;;;;;5051901;28;20203;-86
2024/01/08 02:39:49;;;;;;;1.00;1.00;;;-1.00;99.90;;;;;;5052461;28;20198;-87
2024/01/08 02:42:17;;;;;;;1.00;1.00;;;-1.00;99.90;;;;;;5034384;28;20178;-89
2024/01/08 02:44:44;;;;;;;0.97;0.97;;;-1.00;99.90;;;;;;5052005;28;20179;-88
2024/01/08 02:47:10;;;;;;;1.00;1.00;;;-1.00;99.90;;;;;;5051828;28;20191;-87
2024/01/08 02:49:35;;;;;;;0.90;0.90;;;-1.00;99.90;;;;;;5052922;28;20260;-88
2024/01/08 02:52:01;;;;;;;1.00;1.00;;;-0.90;99.90;;;;;;5053210;28;20175;-87
2024/01/08 02:54:26;;;;;;;0.87;0.87;;;-0.90;99.90;;;;;;5054559;28;20183;-88
2024/01/08 02:56:52;;;;;;;0.90;0.90;;;-0.90;99.90;;;;;;5054634;28;20194;-88
2024/01/08 02:59:17;;;;;;;1.00;1.00;;;-0.90;99.90;;;;;;5036138;28;20182;-89
2024/01/08 03:01:43;;;;;;;0.97;0.97;;;-0.90;99.90;;;;;;5054680;28;20217;-88
2024/01/08 03:04:09;;;;;;;0.90;0.90;;;-0.90;99.90;;;;;;5044368;28;20167;-87
2024/01/08 03:06:34;;;;;;;0.93;0.93;;;-0.80;99.90;;;;;;5056875;28;20199;-88
2024/01/08 03:09:00;;;;;;;0.90;0.90;;;-0.90;99.90;;;;;;5054703;28;20203;-87
2024/01/08 03:11:25;;;;;;;1.00;1.00;;;-0.80;99.90;;;;;;5053410;28;20179;-87
2024/01/08 03:13:51;;;;;;;0.90;0.90;;;-0.80;99.90;;;;;;5052737;28;20203;-91
2024/01/08 03:16:19;;;;;;;0.90;0.90;;;-0.80;99.90;;;;;;5051469;28;20203;-90
2024/01/08 03:18:48;;;;;;;1.00;1.00;;;-0.80;99.60;;;;;;5054872;28;20186;-88
2024/01/08 03:21:13;;;;;;;1.03;1.03;;;-0.80;99.90;;;;;;5052604;28;20171;-87
2024/01/08 03:23:39;;;;;;;0.90;0.90;;;-0.80;99.90;;;;;;5051431;28;20172;-91
2024/01/08 03:26:05;;;;;;;0.90;0.90;;;-0.80;99.90;;;;;;5051240;28;20282;-88
2024/01/08 03:28:31;;;;;;;0.90;0.90;;;-0.80;99.90;;;;;;5051364;28;20171;-88
2024/01/08 03:30:56;;;;;;;1.00;1.00;;;-0.80;99.90;;;;;;5058966;28;20168;-88
2024/01/08 03:33:22;;;;;;;0.90;0.90;;;-0.70;99.90;;;;;;5076867;28;20178;-86
2024/01/08 03:35:48;;;;;;;0.90;0.90;;;-0.70;99.90;;;;;;5076792;28;20167;-87
2024/01/08 03:38:14;;;;;;;1.00;1.00;;;-0.70;99.90;;;;;;5077375;28;20167;-89
2024/01/08 03:40:39;;;;;;;1.00;1.00;;;-0.70;99.90;;;;;;5064589;28;20183;-89
2024/01/08 03:43:05;;;;;;;1.00;1.00;;;-0.70;99.90;;;;;;5034774;28;20209;-89
2024/01/08 03:45:30;;;;;;;1.00;1.00;;;-0.80;99.90;;;;;;5052098;28;20175;-88
2024/01/08 03:47:56;;;;;;;0.90;0.90;;;-0.80;99.90;;;;;;5052615;28;20213;-87
2024/01/08 03:50:22;;;;;;;1.00;1.00;;;-0.70;99.90;;;;;;5055072;28;20672;-88
2024/01/08 03:52:47;;;;;;;0.80;0.80;;;-0.70;99.90;;;;;;5055258;28;20183;-88
2024/01/08 03:55:13;;;;;;;1.00;1.00;;;-0.70;99.90;;;;;;5054833;28;20182;-89
2024/01/08 03:57:38;;;;;;;0.90;0.90;;;-0.70;99.90;;;;;;5054683;28;20203;-88
2024/01/08 04:00:05;;;;;;;1.00;1.00;;;-0.70;99.90;;;;;;5054876;28;20177;-88
2024/01/08 04:02:30;;;;;;;1.00;1.00;;;-0.70;99.90;;;;;;5054665;28;20186;-88
2024/01/08 04:04:56;;;;;;;0.90;0.90;;;-0.70;99.90;;;;;;5054788;28;20179;-88
2024/01/08 04:07:21;;;;;;;0.90;0.90;;;-0.70;99.90;;;;;;5054185;28;20217;-89
2024/01/08 04:09:47;;;;;;;1.00;1.00;;;-0.70;99.90;;;;;;5054548;28;20199;-89
2024/01/08 04:12:13;;;;;;;0.90;0.90;;;-0.60;99.90;;;;;;5054752;28;20182;-88
2024/01/08 04:14:38;;;;;;;0.90;0.90;;;-0.60;99.90;;;;;;5054806;28;20175;-88
2024/01/08 04:17:05;;;;;;;0.90;0.90;;;-0.70;72.80;;;;;;5055014;28;20230;-87
2024/01/08 04:19:31;;;;;;;1.00;1.00;;;-0.70;77.70;;;;;;5054811;28;20263;-87
2024/01/08 04:21:57;;;;;;;0.90;0.90;;;-0.70;99.90;;;;;;5036856;28;20202;-89
2024/01/08 04:24:22;;;;;;;0.90;0.90;;;-0.70;99.90;;;;;;5054486;28;20540;-88
2024/01/08 04:26:48;;;;;;;1.00;1.00;;;-0.70;99.90;;;;;;5053951;28;20191;-89
2024/01/08 04:29:13;;;;;;;1.00;1.00;;;-0.70;99.90;;;;;;5054467;28;20203;-89
2024/01/08 04:31:39;;;;;;;0.90;0.90;;;-0.70;99.90;;;;;;5055033;28;20198;-90
2024/01/08 04:34:05;;;;;;;0.87;0.87;;;-0.70;99.90;;;;;;5054280;28;20171;-88
2024/01/08 04:36:30;;;;;;;0.90;0.90;;;-0.70;99.90;;;;;;5053867;28;20264;-88
2024/01/08 04:38:56;;;;;;;1.00;1.00;;;-0.60;99.90;;;;;;5054678;28;20194;-90
2024/01/08 04:41:21;;;;;;;1.00;1.00;;;-0.70;44.70;;;;;;5054342;28;20183;-88
2024/01/08 04:43:48;;;;;;;0.90;0.90;;;-0.80;23.00;;;;;;5054418;28;20199;-90
2024/01/08 04:46:14;;;;;;;0.90;0.90;;;-0.90;18.30;;;;;;5074379;28;20199;-89
2024/01/08 04:48:41;;;;;;;0.90;0.90;;;-1.00;1.00;;;;;;5077972;28;20194;-90
2024/01/08 04:51:07;;;;;;;1.00;1.00;;;-1.10;1.00;;;;;;5077004;28;20293;-89
2024/01/08 04:53:36;;;;;;;1.00;1.00;;;-1.10;1.00;;;;;;5050545;28;20191;-87
2024/01/08 04:56:02;;;;;;;1.00;1.00;;;-1.20;1.00;;;;;;5054490;28;20664;-88
2024/01/08 04:58:28;;;;;;;1.00;1.00;;;-1.20;10.40;;;;;;5054921;28;20266;-88
2024/01/08 05:00:54;;;;;;;1.00;1.00;;;-1.20;1.00;;;;;;5054974;28;20229;-89
2024/01/08 05:03:19;;;;;;;0.90;0.90;;;-1.20;1.00;;;;;;5036701;28;20167;-89
2024/01/08 05:05:45;;;;;;;0.90;0.90;;;-1.30;1.00;;;;;;5036129;28;20175;-89
2024/01/08 05:08:10;;;;;;;1.00;1.00;;;-1.30;3.50;;;;;;5053898;28;20661;-87
2024/01/08 05:10:36;;;;;;;0.90;0.90;;;-1.20;4.20;;;;;;5054404;28;20207;-88
2024/01/08 05:13:02;;;;;;;1.00;1.00;;;-1.30;1.00;;;;;;5054239;28;20171;-89
2024/01/08 05:15:27;;;;;;;0.97;0.97;;;-1.30;1.00;;;;;;5054321;28;20202;-89
2024/01/08 05:17:53;;;;;;;1.00;1.00;;;-1.20;8.60;;;;;;5054230;28;20206;-87
2024/01/08 05:20:18;;;;;;;0.90;0.90;;;-1.20;1.00;;;;;;5054720;28;20178;-90
2024/01/08 05:22:45;;;;;;;1.00;1.00;;;-1.20;1.00;;;;;;5054149;28;20202;-91
2024/01/08 05:25:11;;;;;;;1.10;1.10;;;-1.20;1.00;;;;;;5053710;28;20553;-90
2024/01/08 05:27:37;;;;;;;1.00;1.00;;;-1.20;1.00;;;;;;5053765;28;20199;-88
2024/01/08 05:30:04;;;;;;;1.00;1.00;;;-1.20;1.00;;;;;;5053420;28;20215;-91
2024/01/08 05:32:29;;;;;;;1.00;1.00;;;-1.10;14.70;;;;;;5053458;28;20208;-87
2024/01/08 05:34:55;;;;;;;0.90;0.90;;;-1.10;1.00;;;;;;5053069;28;20194;-88
2024/01/08 05:37:20;;;;;;;1.00;1.00;;;-1.20;1.00;;;;;;5053402;28;20195;-89
2024/01/08 05:39:46;;;;;;;0.90;0.90;;;-1.20;1.00;;;;;;5053108;28;20656;-90
2024/01/08 05:42:11;;;;;;;1.00;1.00;;;-1.20;1.00;;;;;;5039563;28;20257;-90
2024/01/08 05:44:37;;;;;;;1.00;1.00;;;-1.20;12.00;;;;;;5075707;28;20183;-87
2024/01/08 05:47:03;;;;;;;1.00;1.00;;;-1.20;1.00;;;;;;5054018;28;20201;-87
2024/01/08 05:49:29;;;;;;;1.03;1.03;;;-1.20;13.20;;;;;;5054820;28;20198;-88
2024/01/08 05:51:54;;;;;;;1.00;1.00;;;-1.20;18.10;;;;;;5053832;28;20819;-88
2024/01/08 05:54:20;;;;;;;1.00;1.00;;;-1.20;1.10;;;;;;5035737;28;20600;-88
2024/01/08 05:56:46;;;;;;;1.00;1.00;;;-1.20;4.20;;;;;;5052542;28;20191;-91
2024/01/08 05:59:11;;;;;;;0.93;0.93;;;-1.20;1.00;;;;;;5053318;28;20552;-89
2024/01/08 06:01:37;;;;;;;0.90;0.90;;;-1.00;1.00;;;;;;5053853;28;20190;-89
2024/01/08 06:04:02;;;;;;;1.10;1.10;;;-1.30;1.00;;;;;;5055979;28;20174;-87
2024/01/08 06:06:28;;;;;;;0.90;0.90;;;-1.40;1.00;;;;;;5064927;28;20606;-87
2024/01/08 06:08:54;;;;;;;0.90;0.90;;;-1.50;1.00;;;;;;5065460;28;20233;-89
2024/01/08 06:11:19;;;;;;;1.00;1.00;;;-1.50;1.00;;;;;;5064554;28;20175;-87
2024/01/08 06:13:45;;;;;;;1.10;1.10;;;-1.50;1.00;;;;;;5048771;28;20239;-89
2024/01/08 06:16:15;;;;;;;1.00;1.00;;;-1.40;1.00;;;;;;5065448;28;20256;-88
2024/01/08 06:18:41;;;;;;;0.90;0.90;;;-1.30;1.00;;;;;;5062971;28;20657;-88
2024/01/08 06:21:07;;;;;;;0.90;0.90;;;-1.30;1.00;;;;;;5052903;28;20209;-88
2024/01/08 06:23:33;;;;;;;1.00;1.00;;;-1.40;1.00;;;;;;5053840;28;20198;-90
2024/01/08 06:26:02;;;;;;;1.00;1.00;;;-1.40;1.00;;;;;;5040538;28;20190;-88
2024/01/08 06:28:28;;;;;;;1.00;1.00;;;-1.40;1.00;;;;;;5076186;28;20217;-90
2024/01/08 06:30:54;;;;;;;1.00;1.00;;;-1.30;1.00;;;;;;5076877;28;20191;-88
2024/01/08 06:33:19;;;;;;;1.00;1.00;;;-1.20;1.00;;;;;;5076564;28;20179;-89
2024/01/08 06:35:45;;;;;;;1.00;1.00;;;-1.30;1.00;;;;;;5075990;28;20190;-88
2024/01/08 06:38:11;;;;;;;1.20;1.20;;;-1.40;1.00;;;;;;5076503;28;20175;-91
2024/01/08 06:40:36;;;;;;;1.00;1.00;;;-1.40;1.00;;;;;;5076395;28;20246;-88
2024/01/08 06:43:02;;;;;;;0.90;0.90;;;-1.50;1.00;;;;;;5076055;28;20183;-87
2024/01/08 06:45:28;;;;;;;0.90;0.90;;;-1.40;1.00;;;;;;5074579;28;20167;-87
2024/01/08 06:47:53;;;;;;;1.00;1.00;;;-1.40;1.00;;;;;;5074016;28;20249;-88
2024/01/08 06:50:19;;;;;;;0.90;0.90;;;-1.30;1.00;;;;;;5076371;28;20270;-88
2024/01/08 06:52:45;;;;;;;0.90;0.90;;;-1.30;1.00;;;;;;5056844;28;20369;-88
2024/01/08 06:55:12;;;;;;;1.00;1.00;;;-1.40;1.00;;;;;;5056005;28;20175;-88
2024/01/08 06:57:38;;;;;;;1.07;1.07;;;-1.50;1.00;;;;;;5053617;28;20191;-87
2024/01/08 07:00:05;;;;;;;0.90;0.90;;;-1.50;1.00;;;;;;5053291;28;20175;-87
2024/01/08 07:02:30;;;;;;;0.90;0.90;;;-1.50;1.00;;;;;;5053988;28;20175;-87
2024/01/08 07:04:56;;;;;;;1.10;1.10;;;-1.50;1.00;;;;;;5054559;28;20233;-89
2024/01/08 07:07:21;;;;;;;1.00;1.00;;;-1.50;1.00;;;;;;5054020;28;20195;-88
2024/01/08 07:09:47;;;;;;;1.00;1.00;;;-1.50;1.00;;;;;;5054404;28;20688;-88
2024/01/08 07:12:12;;;;;;;0.93;0.93;;;-1.40;1.00;;;;;;5053815;28;20661;-88
2024/01/08 07:14:45;;;;;;;0.90;0.90;;;-1.50;1.00;;;;;;5053857;28;20179;-87
2024/01/08 07:17:11;;;;;;;0.90;0.90;;;-1.50;1.00;;;;;;5053151;28;20310;-89
2024/01/08 07:19:36;;;;;;;0.90;0.90;;;-1.40;1.00;;;;;;5053506;28;20179;-89
2024/01/08 07:22:02;;;;;;;1.00;1.00;;;-1.50;1.00;;;;;;5054337;28;20179;-88
2024/01/08 07:24:28;;;;;;;0.90;0.90;;;-1.20;1.00;;;;;;5038603;28;20179;-88
2024/01/08 07:26:54;;;;;;;1.00;1.00;;;-1.50;1.00;;;;;;5056854;28;20218;-87
2024/01/08 07:29:19;;;;;;;0.90;0.90;;;-1.50;1.00;;;;;;5057225;28;20790;-90
2024/01/08 07:31:45;;;;;;;0.90;0.90;;;-1.60;1.00;;;;;;5056755;28;20369;-89
2024/01/08 07:34:11;;;;;;;0.90;0.90;;;-1.60;1.00;;;;;;5056469;28;20258;-89
2024/01/08 07:36:36;;;;;;;0.93;0.93;;;-1.70;1.00;;;;;;5055767;28;20198;-90
2024/01/08 07:39:02;;;;;;;1.00;1.00;;;-1.70;1.00;;;;;;5057397;28;20186;-89
2024/01/08 07:41:28;;;;;;;1.00;1.00;;;-1.70;1.00;;;;;;5038571;28;20171;-89
2024/01/08 07:43:58;;;;;;;0.90;0.90;;;-1.60;1.00;;;;;;5055558;28;20163;-88
2024/01/08 07:46:23;;;;;;;0.90;0.90;;;-1.60;1.00;;;;;;5036180;28;20187;-89
2024/01/08 07:48:52;;;;;;;1.00;1.00;;;-1.60;1.00;;;;;;5056311;28;20264;-92
2024/01/08 07:51:24;;;;;;;1.00;1.00;;;-1.50;1.00;;;;;;5056061;28;20924;-89
2024/01/08 07:53:51;;;;;;;0.90;0.90;;;-1.50;1.00;;;;;;5054904;28;20258;-86
2024/01/08 07:56:16;;;;;;;0.93;0.93;;;-1.60;1.00;;;;;;5033140;28;20290;-89
2024/01/08 07:58:42;;;;;;;0.90;0.90;;;-1.60;1.00;;;;;;5038916;28;20231;-89
2024/01/08 08:01:08;;;;;;;0.80;0.80;;;-1.70;1.00;;;;;;5057633;28;20175;-90
2024/01/08 08:03:34;;;;;;;0.90;0.90;;;-1.20;1.00;;;;;;5039271;28;20179;-88
2024/01/08 08:06:00;;;;;;;0.97;0.97;;;-1.70;1.00;;;;;;5059491;28;20195;-88
2024/01/08 08:08:26;;;;;;;1.00;1.00;;;-1.60;1.00;;;;;;5072371;28;20207;-90
2024/01/08 08:10:51;;;;;;;0.90;0.90;;;-1.50;1.00;;;;;;5070319;28;20190;-89
2024/01/08 08:13:17;;;;;;;1.00;1.00;;;-1.50;1.00;;;;;;5055194;28;20183;-90
2024/01/08 08:15:44;;;;;;;1.00;1.00;;;-1.40;1.00;;;;;;5056522;28;20183;-88
2024/01/08 08:18:09;;;;;;;0.90;0.90;;;-1.50;1.00;;;;;;5056712;28;20190;-89
2024/01/08 08:20:36;;;;;;;0.97;0.97;;;-1.50;1.00;;;;;;5055646;28;20642;-91
2024/01/08 08:23:02;;;;;;;0.90;0.90;;;-1.50;1.00;;;;;;5056231;28;20202;-90
2024/01/08 08:25:28;;;;;;;1.00;1.00;;;-1.40;1.00;;;;;;5057910;28;20187;-90
2024/01/08 08:27:53;;;;;;;0.90;0.90;;;-1.30;1.00;;;;;;5057045;28;20202;-91
2024/01/08 08:30:19;;;;;;;0.97;0.97;;;-1.20;1.00;;;;;;5058231;28;20253;-87
2024/01/08 08:32:46;;;;;;;1.00;1.00;;;-1.20;1.00;;;;;;5056328;28;20597;-89
2024/01/08 08:35:12;;;;;;;0.90;0.90;;;-0.90;1.00;;;;;;5055520;28;20667;-89
2024/01/08 08:37:38;;;;;;;0.80;0.80;;;-1.20;1.00;;;;;;5056298;28;20191;-88
2024/01/08 08:40:04;;;;;;;0.93;0.93;;;-1.30;1.00;;;;;;5057228;28;20179;-90
2024/01/08 08:42:30;;;;;;;0.90;0.90;;;-1.20;1.00;;;;;;5039938;28;20179;-87
2024/01/08 08:44:55;;;;;;;0.90;0.90;;;-1.20;1.00;;;;;;5058959;28;20597;-88
2024/01/08 08:47:21;;;;;;;1.03;1.03;;;-1.20;1.00;;;;;;5056997;28;20651;-89
2024/01/08 08:49:47;;;;;;;1.10;1.10;;;-1.20;1.00;;;;;;5055465;28;20750;-89
2024/01/08 08:52:13;;;;;;;0.97;0.97;;;-1.20;1.00;;;;;;5054730;28;20277;-90
2024/01/08 08:54:39;;;;;;;0.87;0.87;;;-1.20;1.00;;;;;;5055171;28;20171;-87
2024/01/08 08:57:04;;;;;;;0.97;0.97;;;-1.20;1.00;;;;;;5055508;28;20252;-89
2024/01/08 08:59:30;;;;;;;1.00;1.00;;;-1.30;1.00;;;;;;5058148;28;20258;-93
2024/01/08 09:01:57;;;;;;;1.00;1.00;;;-1.20;1.00;;;;;;5078721;28;20171;-90
2024/01/08 09:04:23;;;;;;;0.93;0.93;;;-1.30;1.00;;;;;;5078617;28;20171;-90
2024/01/08 09:06:50;;;;;;;0.90;0.90;;;-1.20;1.00;;;;;;5078068;28;20203;-89
2024/01/08 09:09:17;;;;;;;1.00;1.00;;;-1.10;1.00;;;;;;5077618;28;20219;-92
2024/01/08 09:11:43;;;;;;;1.00;1.00;;;-1.00;1.00;;;;;;5069914;28;20553;-88
2024/01/08 09:14:09;;;;;;;0.90;0.90;;;-1.00;1.00;;;;;;5055995;28;20179;-87
2024/01/08 09:16:35;;;;;;;0.90;0.90;;;-1.10;1.00;;;;;;5056298;28;20651;-88
2024/01/08 09:19:03;;;;;;;0.90;0.90;;;-1.10;1.00;;;;;;5064991;28;20175;-89
2024/01/08 09:21:28;;;;;;;0.90;0.90;;;-1.10;1.00;;;;;;5056379;28;20179;-89
2024/01/08 09:23:54;;;;;;;1.00;1.00;;;-1.10;1.00;;;;;;5056099;28;20230;-91
2024/01/08 09:26:22;;;;;;;1.03;1.03;;;-1.00;1.00;;;;;;5055316;28;20218;-90
2024/01/08 09:28:49;;;;;;;0.90;0.90;;;-1.10;1.00;;;;;;5054642;28;20207;-88
2024/01/08 09:31:15;;;;;;;0.90;0.90;;;-1.20;1.00;;;;;;5053263;28;20179;-88
2024/01/08 09:33:40;;;;;;;1.00;1.00;;;-1.20;1.00;;;;;;5053580;28;20182;-90
2024/01/08 09:36:06;;;;;;;1.00;1.00;;;-1.20;1.00;;;;;;5053232;28;20191;-92
2024/01/08 09:38:32;;;;;;;1.00;1.00;;;-1.20;1.00;;;;;;5054566;28;20178;-90
2024/01/08 09:40:57;;;;;;;1.00;1.00;;;-1.30;1.00;;;;;;5056478;28;20178;-90
2024/01/08 09:43:23;;;;;;;1.00;1.00;;;-1.20;1.00;;;;;;5076740;22;20298;-90
2024/01/08 09:46:06;;;;;;;1.00;1.00;;;-1.20;1.00;;;;;;5061221;28;20237;-89
2024/01/08 09:48:34;;;;;;;1.00;1.00;;;-1.30;1.00;;;;;;5060390;28;20201;-90
2024/01/08 09:51:00;;;;;;;1.00;1.00;;;-1.20;1.00;;;;;;5060171;28;20183;-91
2024/01/08 09:53:31;;;;;;;1.00;1.00;;;-1.20;1.00;;;;;;5065973;28;20191;-89
2024/01/08 09:58:39;;;;;;;1.00;1.00;;;-1.10;1.00;;;;;;5144372;22;20239;-88
2024/01/08 10:01:05;;;;;;;1.00;1.00;;;-1.10;1.00;;;;;;5067823;28;20644;-89
2024/01/08 10:03:31;;;;;;;1.00;1.00;;;-1.00;1.00;;;;;;5067874;28;20194;-88
2024/01/08 10:05:56;;;;;;;1.00;1.00;;;-1.00;1.00;;;;;;5067963;28;20198;-89
2024/01/08 10:08:22;;;;;;;0.90;0.90;;;-0.90;1.00;;;;;;5070167;28;20225;-91
2024/01/08 10:13:23;;;;;;;1.00;1.00;;;-1.10;1.00;;;;;;5403906;22;20230;-91
2024/01/08 10:15:49;;;;;;;1.00;1.00;;;-1.10;1.00;;;;;;5041298;28;20264;-87
2024/01/08 10:18:17;;;;;;;0.90;0.90;;;-1.00;1.00;;;;;;5037423;28;20168;-88
2024/01/08 10:20:44;;;;;;;1.00;1.00;;;-0.90;1.00;;;;;;5028801;28;20176;-87
2024/01/08 10:23:12;;;;;;;1.00;1.00;;;-0.80;1.00;;;;;;5026767;28;20181;-88
2024/01/08 10:25:38;;;;;;;0.90;0.90;;;-0.60;1.00;;;;;;5028246;28;20181;-86
2024/01/08 10:28:10;;;;;;;1.00;1.00;;;-0.60;1.00;;;;;;5037801;28;20180;-90
2024/01/08 10:30:36;;;;;;;0.90;0.90;;;-0.50;1.00;;;;;;5033478;28;20212;-89
2024/01/08 10:33:03;;;;;;;0.93;0.93;;;-0.50;1.00;;;;;;5025950;28;20234;-88
2024/01/08 10:35:29;;;;;;;0.90;0.90;;;-0.40;1.00;;;;;;5027641;28;20240;-91
2024/01/08 10:37:56;;;;;;;0.90;0.90;;;-0.30;1.00;;;;;;5017089;28;20248;-90
2024/01/08 10:40:26;;;;;;;0.90;0.90;;;-0.20;1.00;;;;;;5012143;28;20172;-91
2024/01/08 10:42:52;;;;;;;0.90;0.90;;;-0.10;1.00;;;;;;5015085;28;20236;-89
2024/01/08 10:45:17;;;;;;;0.80;0.80;;;-0.20;1.00;;;;;;5015132;28;20211;-89
2024/01/08 10:47:50;;;;;;;0.90;0.90;;;-0.20;1.00;;;;;;5013710;28;20204;-89
2024/01/08 10:50:19;;;;;;;1.00;1.00;;;-0.30;1.00;;;;;;5014390;28;20702;-89
2024/01/08 10:52:55;;;;;;;0.93;0.93;;;-0.50;1.00;;;;;;5014256;28;20735;-90
2024/01/08 10:55:23;;;;;;;0.93;0.93;;;-0.50;1.00;;;;;;5013139;28;20172;-90
2024/01/08 10:58:04;;;;;;;0.90;0.90;;;-0.60;1.00;;;;;;5014686;28;20205;-90
2024/01/08 11:00:30;;;;;;;1.00;1.00;;;-0.50;1.00;;;;;;5017974;28;20176;-88
2024/01/08 11:02:56;;;;;;;1.00;1.00;;;-0.30;1.00;;;;;;5019012;28;20176;-89
2024/01/08 11:05:22;;;;;;;0.97;0.97;;;-0.20;1.00;;;;;;5023507;28;20658;-86
2024/01/08 11:07:50;;;;;;;0.90;0.90;;;-0.20;1.00;;;;;;5036766;28;20196;-88
2024/01/08 11:10:16;;;;;;;0.90;0.90;;;-0.20;1.00;;;;;;5037975;28;20270;-90
2024/01/08 11:12:50;;;;;;;0.80;0.80;;;-0.30;1.00;;;;;;5039396;28;20212;-88
2024/01/08 11:15:17;;;;;;;1.00;1.00;;;-0.30;1.00;;;;;;5038712;28;20228;-86
2024/01/08 11:17:53;;;;;;;0.90;0.90;;;-0.30;1.00;;;;;;5020457;28;20590;-89
2024/01/08 11:20:33;;;;;;;0.90;0.90;;;-0.20;1.00;;;;;;5014390;28;20176;-87
2024/01/08 11:23:01;;;;;;;0.90;0.90;;;-0.10;1.00;;;;;;5010753;28;20177;-89
2024/01/08 11:25:27;;;;;;;0.90;0.90;;;0.00;1.00;;;;;;4999680;28;20177;-87
2024/01/08 11:27:57;;;;;;;0.90;0.90;;;-0.20;1.00;;;;;;4997076;28;20201;-87
2024/01/08 11:30:23;;;;;;;0.90;0.90;;;-0.30;1.00;;;;;;4997584;28;20213;-87
2024/01/08 11:33:13;;;;;;;1.00;1.00;;;-0.40;1.00;;;;;;4996913;28;20247;-87
2024/01/08 11:35:44;;;;;;;0.93;0.93;;;-0.40;1.00;;;;;;4995822;28;20532;-88
2024/01/08 11:38:27;;;;;;;1.00;1.00;;;-0.30;1.00;;;;;;4998183;28;20181;-87
2024/01/08 11:40:56;;;;;;;0.90;0.90;;;-0.20;1.00;;;;;;4998240;28;20178;-88
2024/01/08 11:43:22;;;;;;;0.90;0.90;;;-0.30;1.00;;;;;;4997088;28;20196;-90
2024/01/08 11:45:48;;;;;;;0.90;0.90;;;-0.20;1.00;;;;;;4996175;28;20256;-89
2024/01/08 11:48:13;;;;;;;0.90;0.90;;;-0.30;1.00;;;;;;4998326;28;20177;-86
2024/01/08 11:50:42;;;;;;;1.00;1.00;;;-0.40;1.00;;;;;;5009498;28;20205;-88
2024/01/08 11:53:12;;;;;;;0.80;0.80;;;-0.40;1.00;;;;;;5018120;28;20180;-89
2024/01/08 11:55:43;;;;;;;0.90;0.90;;;-0.50;1.00;;;;;;5018785;28;20179;-88
2024/01/08 11:58:08;;;;;;;1.00;1.00;;;-0.40;1.00;;;;;;5018766;28;20180;-89
2024/01/08 12:00:34;;;;;;;0.90;0.90;;;-0.40;1.00;;;;;;5018506;28;20203;-88
2024/01/08 12:03:04;;;;;;;0.90;0.90;;;-0.40;1.00;;;;;;5015495;28;20168;-87
2024/01/08 12:05:30;;;;;;;0.97;0.97;;;-0.60;1.00;;;;;;5014923;28;20688;-92
2024/01/08 12:07:56;;;;;;;0.90;0.90;;;-0.50;1.00;;;;;;5016489;28;20181;-89
2024/01/08 12:10:22;;;;;;;0.90;0.90;;;-0.50;1.00;;;;;;5014831;28;20307;-91
2024/01/08 12:12:47;;;;;;;0.80;0.80;;;-0.50;1.00;;;;;;5018751;28;20432;-89
2024/01/08 12:15:15;;;;;;;1.00;1.00;;;-0.50;1.00;;;;;;5016274;28;20180;-90
2024/01/08 12:17:40;;;;;;;0.93;0.93;;;-0.60;1.00;;;;;;5015898;28;20685;-91
2024/01/08 12:20:06;;;;;;;0.97;0.97;;;-0.60;1.00;;;;;;5016764;28;20191;-88
2024/01/08 12:22:33;;;;;;;0.90;0.90;;;-0.50;1.00;;;;;;5017261;28;20221;-89
2024/01/08 12:24:59;;;;;;;0.90;0.90;;;-0.40;1.00;;;;;;5016451;28;20542;-90
2024/01/08 12:27:27;;;;;;;0.90;0.90;;;-0.30;1.00;;;;;;5015139;28;20221;-90
2024/01/08 12:29:55;;;;;;;1.00;1.00;;;-0.40;1.00;;;;;;5016197;28;20231;-88
2024/01/08 12:32:22;;;;;;;0.90;0.90;;;-0.40;1.00;;;;;;5016849;28;20176;-87
2024/01/08 12:34:48;;;;;;;1.03;1.03;;;-0.50;1.00;;;;;;5016208;28;20181;-91
2024/01/08 12:37:19;;;;;;;0.90;0.90;;;-0.50;1.00;;;;;;5015694;28;20561;-91
2024/01/08 12:39:45;;;;;;;0.90;0.90;;;-0.50;1.00;;;;;;5015982;28;20173;-90
2024/01/08 12:42:16;;;;;;;0.90;0.90;;;-0.50;1.00;;;;;;5015529;28;20203;-89
2024/01/08 12:44:44;;;;;;;0.80;0.80;;;-0.50;1.00;;;;;;5014577;28;20172;-87
2024/01/08 12:47:10;;;;;;;0.90;0.90;;;-0.40;1.00;;;;;;5015014;28;20247;-87
2024/01/08 12:49:36;;;;;;;0.80;0.80;;;-0.30;1.00;;;;;;5014503;28;20220;-87
2024/01/08 12:52:02;;;;;;;1.00;1.00;;;-0.10;1.00;;;;;;5017167;28;20176;-88
2024/01/08 12:54:32;;;;;;;0.90;0.90;;;0.00;1.00;;;;;;5015899;28;20522;-88